createdAt,value
2018-04-22T00:00:16.893Z,0
2018-04-22T00:00:48.946Z,0
2018-04-22T00:01:20.984Z,0
2018-04-22T00:01:53.028Z,0
2018-04-22T00:02:25.048Z,0
2018-04-22T00:02:57.174Z,0
2018-04-22T00:03:29.213Z,0
2018-04-22T00:04:01.242Z,0
2018-04-22T00:04:33.339Z,0
2018-04-22T00:05:05.368Z,0
2018-04-22T00:05:37.365Z,0
2018-04-22T00:06:09.382Z,0
2018-04-22T00:06:42.294Z,0
2018-04-22T00:07:14.305Z,0
2018-04-22T00:07:46.317Z,0
2018-04-22T00:08:18.347Z,0
2018-04-22T00:08:50.350Z,0
2018-04-22T00:09:22.396Z,0
2018-04-22T00:09:54.422Z,0
2018-04-22T00:10:26.378Z,0
2018-04-22T00:10:58.403Z,0
2018-04-22T00:11:30.440Z,0
2018-04-22T00:12:02.502Z,0
2018-04-22T00:12:34.528Z,0
2018-04-22T00:13:06.581Z,0
2018-04-22T00:13:38.611Z,0
2018-04-22T00:14:10.651Z,0
2018-04-22T00:14:42.740Z,0
2018-04-22T00:15:14.763Z,0
2018-04-22T00:15:46.789Z,0
2018-04-22T00:16:18.924Z,0
2018-04-22T00:16:50.940Z,0
2018-04-22T00:17:22.980Z,0
2018-04-22T00:17:55.013Z,0
2018-04-22T00:18:27.031Z,0
2018-04-22T00:18:59.089Z,0
2018-04-22T00:19:31.123Z,0
2018-04-22T00:20:03.191Z,0
2018-04-22T00:20:35.234Z,0
2018-04-22T00:21:07.285Z,0
2018-04-22T00:21:39.255Z,0
2018-04-22T00:22:11.295Z,0
2018-04-22T00:22:43.303Z,0
2018-04-22T00:23:15.363Z,0
2018-04-22T00:23:47.422Z,0
2018-04-22T00:24:19.473Z,0
2018-04-22T00:24:51.497Z,0
2018-04-22T00:25:23.495Z,0
2018-04-22T00:25:55.508Z,0
2018-04-22T00:26:27.575Z,0
2018-04-22T00:26:59.597Z,0
2018-04-22T00:27:31.620Z,0
2018-04-22T00:28:03.673Z,0
2018-04-22T00:28:35.674Z,0
2018-04-22T00:29:07.760Z,0
2018-04-22T00:29:39.784Z,0
2018-04-22T00:30:11.838Z,0
2018-04-22T00:30:43.901Z,0
2018-04-22T00:31:15.930Z,0
2018-04-22T00:31:47.961Z,0
2018-04-22T00:32:19.992Z,0
2018-04-22T00:32:51.961Z,0
2018-04-22T00:33:23.987Z,0
2018-04-22T00:33:56.005Z,0
2018-04-22T00:34:28.042Z,0
2018-04-22T00:35:00.046Z,0
2018-04-22T00:35:32.090Z,0
2018-04-22T00:36:04.150Z,0
2018-04-22T00:36:36.170Z,0
2018-04-22T00:37:08.294Z,0
2018-04-22T00:37:40.287Z,0
2018-04-22T00:38:12.434Z,0
2018-04-22T00:38:44.478Z,0
2018-04-22T00:39:16.525Z,0
2018-04-22T00:39:48.610Z,0
2018-04-22T00:40:20.618Z,0
2018-04-22T00:40:52.657Z,0
2018-04-22T00:41:24.780Z,0
2018-04-22T00:41:56.837Z,0
2018-04-22T00:42:28.858Z,0
2018-04-22T00:43:00.837Z,0
2018-04-22T00:43:32.927Z,0
2018-04-22T00:44:04.956Z,0
2018-04-22T00:44:37.004Z,0
2018-04-22T00:45:09.135Z,0
2018-04-22T00:45:41.842Z,0
2018-04-22T00:46:14.695Z,0
2018-04-22T00:46:46.684Z,0
2018-04-22T00:47:18.693Z,0
2018-04-22T00:47:51.394Z,0
2018-04-22T00:48:23.391Z,0
2018-04-22T00:48:55.441Z,0
2018-04-22T00:49:27.510Z,0
2018-04-22T00:49:59.545Z,0
2018-04-22T00:50:31.572Z,0
2018-04-22T00:51:03.598Z,0
2018-04-22T00:51:35.576Z,0
2018-04-22T00:52:07.607Z,0
2018-04-22T00:52:39.596Z,0
2018-04-22T00:53:11.627Z,0
2018-04-22T00:53:43.685Z,0
2018-04-22T00:54:15.739Z,0
2018-04-22T00:54:47.777Z,0
2018-04-22T00:55:19.792Z,0
2018-04-22T00:55:51.822Z,0
2018-04-22T00:56:23.835Z,0
2018-04-22T00:56:55.868Z,0
2018-04-22T00:57:27.913Z,0
2018-04-22T00:57:59.966Z,0
2018-04-22T00:58:32.019Z,0
2018-04-22T00:59:04.053Z,0
2018-04-22T00:59:36.098Z,0
2018-04-22T01:00:08.154Z,0
2018-04-22T01:00:40.179Z,0
2018-04-22T01:01:12.201Z,0
2018-04-22T01:01:44.240Z,0
2018-04-22T01:02:16.290Z,0
2018-04-22T01:02:48.276Z,0
2018-04-22T01:03:20.318Z,0
2018-04-22T01:03:52.468Z,0
2018-04-22T01:04:24.639Z,0
2018-04-22T01:04:56.660Z,0
2018-04-22T01:05:28.676Z,0
2018-04-22T01:06:00.721Z,0
2018-04-22T01:06:32.732Z,0
2018-04-22T01:07:04.737Z,0
2018-04-22T01:07:36.795Z,0
2018-04-22T01:08:08.819Z,0
2018-04-22T01:08:40.851Z,0
2018-04-22T01:09:12.900Z,0
2018-04-22T01:09:44.926Z,0
2018-04-22T01:10:16.967Z,0
2018-04-22T01:10:49.147Z,0
2018-04-22T01:11:21.199Z,0
2018-04-22T01:11:53.250Z,0
2018-04-22T01:12:25.307Z,0
2018-04-22T01:12:57.351Z,0
2018-04-22T01:13:29.428Z,0
2018-04-22T01:14:01.444Z,0
2018-04-22T01:14:33.494Z,0
2018-04-22T01:15:05.623Z,0
2018-04-22T01:15:37.634Z,0
2018-04-22T01:16:09.641Z,0
2018-04-22T01:16:41.690Z,0
2018-04-22T01:17:13.689Z,0
2018-04-22T01:17:45.714Z,0
2018-04-22T01:18:17.757Z,0
2018-04-22T01:18:49.814Z,0
2018-04-22T01:19:21.826Z,0
2018-04-22T01:19:53.878Z,0
2018-04-22T01:20:25.886Z,0
2018-04-22T01:20:58.097Z,0
2018-04-22T01:21:30.122Z,0
2018-04-22T01:22:02.149Z,0
2018-04-22T01:22:34.182Z,0
2018-04-22T01:23:06.219Z,0
2018-04-22T01:23:38.242Z,0
2018-04-22T01:24:10.298Z,0
2018-04-22T01:24:43.022Z,0
2018-04-22T01:25:15.071Z,0
2018-04-22T01:25:47.122Z,0
2018-04-22T01:26:19.123Z,0
2018-04-22T01:26:51.090Z,0
2018-04-22T01:27:23.081Z,0
2018-04-22T01:27:55.096Z,0
2018-04-22T01:28:27.140Z,0
2018-04-22T01:28:59.137Z,0
2018-04-22T01:29:31.162Z,0
2018-04-22T01:30:03.176Z,0
2018-04-22T01:30:35.169Z,0
2018-04-22T01:31:07.268Z,0
2018-04-22T01:31:39.427Z,0
2018-04-22T01:32:11.404Z,0
2018-04-22T01:32:43.456Z,0
2018-04-22T01:33:15.520Z,0
2018-04-22T01:33:47.527Z,0
2018-04-22T01:34:19.583Z,0
2018-04-22T01:34:51.634Z,0
2018-04-22T01:35:23.692Z,0
2018-04-22T01:35:55.735Z,0
2018-04-22T01:36:27.785Z,0
2018-04-22T01:36:59.828Z,0
2018-04-22T01:37:31.842Z,0
2018-04-22T01:38:03.866Z,0
2018-04-22T01:38:35.939Z,0
2018-04-22T01:39:08.057Z,0
2018-04-22T01:39:40.076Z,0
2018-04-22T01:40:12.089Z,0
2018-04-22T01:40:44.148Z,0
2018-04-22T01:41:16.216Z,0
2018-04-22T01:41:48.235Z,0
2018-04-22T01:42:20.273Z,0
2018-04-22T01:42:52.310Z,0
2018-04-22T01:43:24.340Z,0
2018-04-22T01:43:56.386Z,0
2018-04-22T01:44:28.434Z,0
2018-04-22T01:45:00.616Z,0
2018-04-22T01:45:33.539Z,0
2018-04-22T01:46:05.539Z,0
2018-04-22T01:46:38.352Z,0
2018-04-22T01:47:10.348Z,0
2018-04-22T01:47:42.386Z,0
2018-04-22T01:48:14.400Z,0
2018-04-22T01:48:46.442Z,0
2018-04-22T01:49:18.518Z,0
2018-04-22T01:49:50.545Z,0
2018-04-22T01:50:22.585Z,0
2018-04-22T01:50:54.630Z,0
2018-04-22T01:51:26.674Z,0
2018-04-22T01:51:58.719Z,0
2018-04-22T01:52:30.738Z,0
2018-04-22T01:53:02.773Z,0
2018-04-22T01:53:34.807Z,0
2018-04-22T01:54:06.797Z,0
2018-04-22T01:54:38.882Z,0
2018-04-22T01:55:10.905Z,0
2018-04-22T01:55:42.905Z,0
2018-04-22T01:56:14.945Z,0
2018-04-22T01:56:47.104Z,0
2018-04-22T01:57:19.096Z,0
2018-04-22T01:57:51.133Z,0
2018-04-22T01:58:23.181Z,0
2018-04-22T01:58:55.243Z,0
2018-04-22T01:59:27.278Z,0
2018-04-22T01:59:59.443Z,0
2018-04-22T02:00:31.512Z,0
2018-04-22T02:01:03.519Z,0
2018-04-22T02:01:35.551Z,0
2018-04-22T02:02:07.522Z,0
2018-04-22T02:02:39.540Z,0
2018-04-22T02:03:11.561Z,0
2018-04-22T02:03:43.599Z,0
2018-04-22T02:04:15.611Z,0
2018-04-22T02:04:47.654Z,0
2018-04-22T02:05:19.656Z,0
2018-04-22T02:05:51.702Z,0
2018-04-22T02:06:23.717Z,0
2018-04-22T02:06:55.742Z,0
2018-04-22T02:07:27.778Z,0
2018-04-22T02:07:59.815Z,0
2018-04-22T02:08:31.916Z,0
2018-04-22T02:09:04.008Z,0
2018-04-22T02:09:36.152Z,0
2018-04-22T02:10:08.203Z,0
2018-04-22T02:10:40.200Z,0
2018-04-22T02:11:12.246Z,0
2018-04-22T02:11:44.345Z,0
2018-04-22T02:12:16.367Z,0
2018-04-22T02:12:48.424Z,0
2018-04-22T02:13:20.479Z,0
2018-04-22T02:13:52.515Z,0
2018-04-22T02:14:24.565Z,0
2018-04-22T02:14:56.604Z,0
2018-04-22T02:15:28.654Z,0
2018-04-22T02:16:00.689Z,0
2018-04-22T02:16:32.752Z,0
2018-04-22T02:17:04.783Z,0
2018-04-22T02:17:36.780Z,0
2018-04-22T02:18:08.777Z,0
2018-04-22T02:18:40.899Z,0
2018-04-22T02:19:13.015Z,0
2018-04-22T02:19:45.012Z,0
2018-04-22T02:20:17.039Z,0
2018-04-22T02:20:49.068Z,0
2018-04-22T02:21:21.106Z,0
2018-04-22T02:21:53.142Z,0
2018-04-22T02:22:25.225Z,0
2018-04-22T02:22:57.243Z,0
2018-04-22T02:23:29.300Z,0
2018-04-22T02:24:01.348Z,0
2018-04-22T02:24:33.378Z,0
2018-04-22T02:25:05.419Z,0
2018-04-22T02:25:37.475Z,0
2018-04-22T02:26:10.435Z,0
2018-04-22T02:26:42.473Z,0
2018-04-22T02:27:14.557Z,0
2018-04-22T02:27:46.644Z,0
2018-04-22T02:28:18.709Z,0
2018-04-22T02:28:50.735Z,0
2018-04-22T02:29:22.770Z,0
2018-04-22T02:29:54.905Z,0
2018-04-22T02:30:26.967Z,0
2018-04-22T02:30:58.999Z,0
2018-04-22T02:31:31.036Z,0
2018-04-22T02:32:03.036Z,0
2018-04-22T02:32:35.092Z,0
2018-04-22T02:33:07.111Z,0
2018-04-22T02:33:39.166Z,0
2018-04-22T02:34:11.228Z,0
2018-04-22T02:34:43.271Z,0
2018-04-22T02:35:15.338Z,0
2018-04-22T02:35:47.396Z,0
2018-04-22T02:36:19.419Z,0
2018-04-22T02:36:51.462Z,0
2018-04-22T02:37:23.543Z,0
2018-04-22T02:37:55.592Z,0
2018-04-22T02:38:27.627Z,0
2018-04-22T02:38:59.716Z,0
2018-04-22T02:39:32.228Z,0
2018-04-22T02:40:04.275Z,0
2018-04-22T02:40:36.310Z,0
2018-04-22T02:41:08.329Z,0
2018-04-22T02:41:40.419Z,0
2018-04-22T02:42:12.461Z,0
2018-04-22T02:42:44.490Z,0
2018-04-22T02:43:16.535Z,0
2018-04-22T02:43:48.576Z,0
2018-04-22T02:44:20.622Z,0
2018-04-22T02:44:52.663Z,0
2018-04-22T02:45:24.711Z,0
2018-04-22T02:45:56.734Z,0
2018-04-22T02:46:28.761Z,0
2018-04-22T02:47:00.892Z,0
2018-04-22T02:47:32.958Z,0
2018-04-22T02:48:04.972Z,0
2018-04-22T02:48:37.017Z,0
2018-04-22T02:49:09.067Z,0
2018-04-22T02:49:41.094Z,0
2018-04-22T02:50:13.104Z,0
2018-04-22T02:50:45.162Z,0
2018-04-22T02:51:17.200Z,0
2018-04-22T02:51:49.284Z,0
2018-04-22T02:52:21.337Z,0
2018-04-22T02:52:53.396Z,0
2018-04-22T02:53:25.447Z,0
2018-04-22T02:53:57.473Z,0
2018-04-22T02:54:29.551Z,0
2018-04-22T02:55:01.586Z,0
2018-04-22T02:55:33.598Z,0
2018-04-22T02:56:05.693Z,0
2018-04-22T02:56:37.721Z,0
2018-04-22T02:57:09.742Z,0
2018-04-22T02:57:41.765Z,0
2018-04-22T02:58:13.942Z,0
2018-04-22T02:58:45.981Z,0
2018-04-22T02:59:18.048Z,0
2018-04-22T02:59:50.064Z,0
2018-04-22T03:00:22.090Z,0
2018-04-22T03:00:54.200Z,0
2018-04-22T03:01:26.241Z,0
2018-04-22T03:01:58.258Z,0
2018-04-22T03:02:30.313Z,0
2018-04-22T03:03:02.322Z,0
2018-04-22T03:03:34.333Z,0
2018-04-22T03:04:06.373Z,0
2018-04-22T03:04:38.500Z,0
2018-04-22T03:05:10.533Z,0
2018-04-22T03:05:42.553Z,0
2018-04-22T03:06:14.587Z,0
2018-04-22T03:06:46.789Z,0
2018-04-22T03:07:18.862Z,0
2018-04-22T03:07:50.899Z,0
2018-04-22T03:08:22.936Z,0
2018-04-22T03:08:54.959Z,0
2018-04-22T03:09:26.985Z,0
2018-04-22T03:09:59.049Z,0
2018-04-22T03:10:31.226Z,0
2018-04-22T03:11:03.249Z,0
2018-04-22T03:11:35.280Z,0
2018-04-22T03:12:07.388Z,0
2018-04-22T03:12:39.414Z,0
2018-04-22T03:13:11.440Z,0
2018-04-22T03:13:43.471Z,0
2018-04-22T03:14:15.509Z,0
2018-04-22T03:14:47.550Z,0
2018-04-22T03:15:19.563Z,0
2018-04-22T03:15:51.673Z,0
2018-04-22T03:16:23.678Z,0
2018-04-22T03:16:55.706Z,0
2018-04-22T03:17:27.722Z,0
2018-04-22T03:17:59.835Z,0
2018-04-22T03:18:31.860Z,0
2018-04-22T03:19:03.882Z,0
2018-04-22T03:19:35.911Z,0
2018-04-22T03:20:07.934Z,0
2018-04-22T03:20:39.961Z,0
2018-04-22T03:21:11.997Z,0
2018-04-22T03:21:44.038Z,0
2018-04-22T03:22:16.096Z,0
2018-04-22T03:22:48.116Z,0
2018-04-22T03:23:20.190Z,0
2018-04-22T03:23:52.242Z,0
2018-04-22T03:24:24.299Z,0
2018-04-22T03:24:56.323Z,0
2018-04-22T03:25:28.351Z,0
2018-04-22T03:26:00.445Z,0
2018-04-22T03:26:32.459Z,0
2018-04-22T03:27:04.458Z,0
2018-04-22T03:27:36.513Z,0
2018-04-22T03:28:08.511Z,0
2018-04-22T03:28:40.593Z,0
2018-04-22T03:29:12.686Z,0
2018-04-22T03:29:44.692Z,0
2018-04-22T03:30:16.715Z,0
2018-04-22T03:30:48.768Z,0
2018-04-22T03:31:20.821Z,0
2018-04-22T03:31:52.883Z,0
2018-04-22T03:32:24.922Z,0
2018-04-22T03:32:56.945Z,0
2018-04-22T03:33:28.981Z,0
2018-04-22T03:34:01.061Z,0
2018-04-22T03:34:33.100Z,0
2018-04-22T03:35:05.150Z,0
2018-04-22T03:35:37.173Z,0
2018-04-22T03:36:09.334Z,0
2018-04-22T03:36:41.394Z,0
2018-04-22T03:37:13.440Z,0
2018-04-22T03:37:45.449Z,0
2018-04-22T03:38:17.595Z,0
2018-04-22T03:38:49.630Z,0
2018-04-22T03:39:21.648Z,0
2018-04-22T03:39:53.685Z,0
2018-04-22T03:40:25.701Z,0
2018-04-22T03:40:57.732Z,0
2018-04-22T03:41:29.758Z,0
2018-04-22T03:42:01.763Z,0
2018-04-22T03:42:33.860Z,0
2018-04-22T03:43:05.922Z,0
2018-04-22T03:43:37.978Z,0
2018-04-22T03:44:10.036Z,0
2018-04-22T03:44:42.092Z,0
2018-04-22T03:45:14.078Z,0
2018-04-22T03:45:46.067Z,0
2018-04-22T03:46:18.183Z,0
2018-04-22T03:46:50.219Z,0
2018-04-22T03:47:22.257Z,0
2018-04-22T03:47:54.305Z,0
2018-04-22T03:48:26.259Z,4
2018-04-22T03:48:58.325Z,4
2018-04-22T03:49:30.439Z,4
2018-04-22T03:50:02.457Z,4
2018-04-22T03:50:34.486Z,4
2018-04-22T03:51:06.507Z,0
2018-04-22T03:51:38.622Z,0
2018-04-22T03:52:10.676Z,4
2018-04-22T03:52:42.725Z,4
2018-04-22T03:53:14.755Z,4
2018-04-22T03:53:46.855Z,4
2018-04-22T03:54:18.898Z,4
2018-04-22T03:54:50.947Z,4
2018-04-22T03:55:23.060Z,4
2018-04-22T03:55:55.067Z,4
2018-04-22T03:56:27.117Z,8
2018-04-22T03:56:59.133Z,4
2018-04-22T03:57:31.197Z,8
2018-04-22T03:58:03.233Z,8
2018-04-22T03:58:35.287Z,8
2018-04-22T03:59:07.330Z,8
2018-04-22T03:59:39.340Z,12
2018-04-22T04:00:11.357Z,8
2018-04-22T04:00:43.369Z,12
2018-04-22T04:01:15.414Z,16
2018-04-22T04:01:47.451Z,12
2018-04-22T04:02:19.465Z,16
2018-04-22T04:02:51.508Z,16
2018-04-22T04:03:23.527Z,16
2018-04-22T04:03:55.633Z,20
2018-04-22T04:04:27.655Z,16
2018-04-22T04:04:59.673Z,20
2018-04-22T04:05:31.678Z,20
2018-04-22T04:06:03.802Z,24
2018-04-22T04:06:35.813Z,24
2018-04-22T04:07:07.861Z,24
2018-04-22T04:07:39.906Z,28
2018-04-22T04:08:11.945Z,28
2018-04-22T04:08:43.979Z,32
2018-04-22T04:09:16.016Z,32
2018-04-22T04:09:48.169Z,36
2018-04-22T04:10:20.255Z,40
2018-04-22T04:10:52.293Z,40
2018-04-22T04:11:24.285Z,44
2018-04-22T04:11:56.331Z,44
2018-04-22T04:12:28.471Z,48
2018-04-22T04:13:00.515Z,52
2018-04-22T04:13:32.524Z,52
2018-04-22T04:14:04.573Z,56
2018-04-22T04:14:36.655Z,60
2018-04-22T04:15:08.653Z,64
2018-04-22T04:15:40.696Z,68
2018-04-22T04:16:12.722Z,68
2018-04-22T04:16:44.770Z,72
2018-04-22T04:17:16.754Z,76
2018-04-22T04:17:48.817Z,80
2018-04-22T04:18:20.873Z,84
2018-04-22T04:18:52.916Z,88
2018-04-22T04:19:25.003Z,92
2018-04-22T04:19:57.053Z,100
2018-04-22T04:20:29.048Z,100
2018-04-22T04:21:01.180Z,104
2018-04-22T04:21:33.926Z,112
2018-04-22T04:22:05.921Z,116
2018-04-22T04:22:37.932Z,120
2018-04-22T04:23:09.977Z,124
2018-04-22T04:23:42.008Z,128
2018-04-22T04:24:14.074Z,132
2018-04-22T04:24:46.055Z,140
2018-04-22T04:25:18.060Z,144
2018-04-22T04:25:50.091Z,148
2018-04-22T04:26:22.094Z,152
2018-04-22T04:26:54.133Z,160
2018-04-22T04:27:26.166Z,160
2018-04-22T04:27:58.212Z,168
2018-04-22T04:28:30.245Z,176
2018-04-22T04:29:02.279Z,184
2018-04-22T04:29:34.290Z,184
2018-04-22T04:30:06.331Z,192
2018-04-22T04:30:38.361Z,196
2018-04-22T04:31:10.413Z,204
2018-04-22T04:31:42.444Z,212
2018-04-22T04:32:14.473Z,216
2018-04-22T04:32:46.481Z,220
2018-04-22T04:33:18.520Z,228
2018-04-22T04:33:50.563Z,232
2018-04-22T04:34:22.722Z,240
2018-04-22T04:34:54.815Z,248
2018-04-22T04:35:26.862Z,252
2018-04-22T04:35:59.056Z,260
2018-04-22T04:36:31.059Z,268
2018-04-22T04:37:03.079Z,272
2018-04-22T04:37:35.101Z,280
2018-04-22T04:38:07.089Z,284
2018-04-22T04:38:39.124Z,292
2018-04-22T04:39:11.149Z,296
2018-04-22T04:39:43.321Z,304
2018-04-22T04:40:15.347Z,308
2018-04-22T04:40:47.363Z,316
2018-04-22T04:41:19.418Z,324
2018-04-22T04:41:51.447Z,324
2018-04-22T04:42:23.459Z,332
2018-04-22T04:42:55.476Z,336
2018-04-22T04:43:27.672Z,348
2018-04-22T04:43:59.824Z,352
2018-04-22T04:44:31.840Z,356
2018-04-22T04:45:03.877Z,364
2018-04-22T04:45:35.885Z,372
2018-04-22T04:46:07.920Z,376
2018-04-22T04:46:39.949Z,380
2018-04-22T04:47:11.989Z,384
2018-04-22T04:47:43.978Z,392
2018-04-22T04:48:15.987Z,404
2018-04-22T04:48:48.015Z,416
2018-04-22T04:49:20.044Z,432
2018-04-22T04:49:52.091Z,436
2018-04-22T04:50:24.156Z,448
2018-04-22T04:50:56.150Z,456
2018-04-22T04:51:28.326Z,464
2018-04-22T04:52:00.373Z,472
2018-04-22T04:52:32.421Z,484
2018-04-22T04:53:04.453Z,492
2018-04-22T04:53:36.511Z,504
2018-04-22T04:54:08.536Z,520
2018-04-22T04:54:40.571Z,528
2018-04-22T04:55:12.606Z,540
2018-04-22T04:55:44.634Z,552
2018-04-22T04:56:16.649Z,556
2018-04-22T04:56:48.653Z,564
2018-04-22T04:57:20.679Z,572
2018-04-22T04:57:52.714Z,580
2018-04-22T04:58:24.754Z,592
2018-04-22T04:58:56.809Z,596
2018-04-22T04:59:28.857Z,600
2018-04-22T05:00:00.926Z,604
2018-04-22T05:00:33.013Z,608
2018-04-22T05:01:05.051Z,616
2018-04-22T05:01:37.086Z,624
2018-04-22T05:02:09.129Z,632
2018-04-22T05:02:41.155Z,640
2018-04-22T05:03:13.178Z,652
2018-04-22T05:03:45.244Z,656
2018-04-22T05:04:17.239Z,664
2018-04-22T05:04:49.249Z,672
2018-04-22T05:05:21.294Z,676
2018-04-22T05:05:53.301Z,680
2018-04-22T05:06:25.317Z,684
2018-04-22T05:06:57.323Z,692
2018-04-22T05:07:29.340Z,704
2018-04-22T05:08:01.369Z,716
2018-04-22T05:08:33.514Z,732
2018-04-22T05:09:05.623Z,740
2018-04-22T05:09:37.674Z,748
2018-04-22T05:10:09.732Z,756
2018-04-22T05:10:41.872Z,764
2018-04-22T05:11:13.838Z,768
2018-04-22T05:11:45.857Z,776
2018-04-22T05:12:17.876Z,780
2018-04-22T05:12:49.903Z,788
2018-04-22T05:13:21.966Z,800
2018-04-22T05:13:53.980Z,816
2018-04-22T05:14:26.022Z,832
2018-04-22T05:14:58.008Z,856
2018-04-22T05:15:30.001Z,884
2018-04-22T05:16:02.049Z,912
2018-04-22T05:16:34.117Z,932
2018-04-22T05:17:06.176Z,948
2018-04-22T05:17:38.151Z,952
2018-04-22T05:18:10.110Z,960
2018-04-22T05:18:42.230Z,968
2018-04-22T05:19:14.208Z,976
2018-04-22T05:19:46.310Z,984
2018-04-22T05:20:18.369Z,1000
2018-04-22T05:20:50.381Z,1036
2018-04-22T05:21:22.397Z,1072
2018-04-22T05:21:54.470Z,1116
2018-04-22T05:22:26.489Z,1156
2018-04-22T05:22:58.502Z,1204
2018-04-22T05:23:30.534Z,1256
2018-04-22T05:24:02.529Z,1304
2018-04-22T05:24:34.583Z,1344
2018-04-22T05:25:06.669Z,1376
2018-04-22T05:25:39.557Z,1404
2018-04-22T05:26:11.567Z,1420
2018-04-22T05:26:43.584Z,1416
2018-04-22T05:27:15.602Z,1372
2018-04-22T05:27:47.614Z,1292
2018-04-22T05:28:19.642Z,1192
2018-04-22T05:28:51.673Z,1104
2018-04-22T05:29:23.724Z,1052
2018-04-22T05:29:55.786Z,1032
2018-04-22T05:30:27.825Z,1024
2018-04-22T05:30:59.871Z,1004
2018-04-22T05:31:32.011Z,1008
2018-04-22T05:32:04.108Z,1044
2018-04-22T05:32:36.117Z,1096
2018-04-22T05:33:08.132Z,1128
2018-04-22T05:33:40.173Z,1188
2018-04-22T05:34:13.128Z,1252
2018-04-22T05:34:45.131Z,1332
2018-04-22T05:35:17.157Z,1412
2018-04-22T05:35:49.184Z,1516
2018-04-22T05:36:21.263Z,1656
2018-04-22T05:36:53.375Z,1732
2018-04-22T05:37:25.368Z,1672
2018-04-22T05:37:57.380Z,1500
2018-04-22T05:38:29.397Z,1324
2018-04-22T05:39:01.423Z,1244
2018-04-22T05:39:33.468Z,1240
2018-04-22T05:40:05.607Z,1264
2018-04-22T05:40:37.621Z,1320
2018-04-22T05:41:09.591Z,1436
2018-04-22T05:41:41.610Z,1584
2018-04-22T05:42:13.601Z,1652
2018-04-22T05:42:45.710Z,1772
2018-04-22T05:43:17.736Z,1852
2018-04-22T05:43:49.876Z,1932
2018-04-22T05:44:21.861Z,1968
2018-04-22T05:44:53.912Z,1988
2018-04-22T05:45:25.959Z,2004
2018-04-22T05:45:58.126Z,2024
2018-04-22T05:46:30.188Z,2044
2018-04-22T05:47:02.227Z,2072
2018-04-22T05:47:34.253Z,2104
2018-04-22T05:48:06.297Z,2112
2018-04-22T05:48:38.438Z,2116
2018-04-22T05:49:10.455Z,2144
2018-04-22T05:49:42.496Z,2148
2018-04-22T05:50:14.509Z,2164
2018-04-22T05:50:46.515Z,2204
2018-04-22T05:51:18.527Z,2248
2018-04-22T05:51:50.554Z,2280
2018-04-22T05:52:22.635Z,2312
2018-04-22T05:52:54.610Z,2328
2018-04-22T05:53:26.646Z,2340
2018-04-22T05:53:58.706Z,2348
2018-04-22T05:54:30.696Z,2348
2018-04-22T05:55:02.756Z,2352
2018-04-22T05:55:34.766Z,2364
2018-04-22T05:56:06.754Z,2388
2018-04-22T05:56:38.823Z,2404
2018-04-22T05:57:10.809Z,2420
2018-04-22T05:57:42.838Z,2424
2018-04-22T05:58:14.852Z,2436
2018-04-22T05:58:46.893Z,2448
2018-04-22T05:59:18.952Z,2464
2018-04-22T05:59:50.988Z,2480
2018-04-22T06:00:23.011Z,2484
2018-04-22T06:00:55.084Z,2472
2018-04-22T06:01:27.152Z,2484
2018-04-22T06:01:59.157Z,2452
2018-04-22T06:02:31.173Z,2532
2018-04-22T06:03:03.223Z,2584
2018-04-22T06:03:35.298Z,2604
2018-04-22T06:04:07.320Z,2632
2018-04-22T06:04:39.377Z,2640
2018-04-22T06:05:11.389Z,2672
2018-04-22T06:05:43.398Z,2712
2018-04-22T06:06:15.437Z,2744
2018-04-22T06:06:47.458Z,2728
2018-04-22T06:07:19.505Z,2772
2018-04-22T06:07:51.503Z,2808
2018-04-22T06:08:23.535Z,2816
2018-04-22T06:08:55.564Z,2836
2018-04-22T06:09:27.574Z,2864
2018-04-22T06:09:59.619Z,2868
2018-04-22T06:10:31.673Z,2812
2018-04-22T06:11:03.692Z,2852
2018-04-22T06:11:35.748Z,2940
2018-04-22T06:12:07.729Z,2920
2018-04-22T06:12:39.781Z,2944
2018-04-22T06:13:11.813Z,2924
2018-04-22T06:13:43.814Z,2832
2018-04-22T06:14:15.820Z,2896
2018-04-22T06:14:47.839Z,2848
2018-04-22T06:15:19.875Z,2784
2018-04-22T06:15:51.993Z,2788
2018-04-22T06:16:23.993Z,2796
2018-04-22T06:16:56.045Z,2824
2018-04-22T06:17:28.092Z,2808
2018-04-22T06:18:00.079Z,2916
2018-04-22T06:18:32.119Z,2868
2018-04-22T06:19:04.184Z,2872
2018-04-22T06:19:36.218Z,2924
2018-04-22T06:20:08.239Z,2956
2018-04-22T06:20:40.269Z,3000
2018-04-22T06:21:12.328Z,2996
2018-04-22T06:21:44.356Z,3016
2018-04-22T06:22:16.393Z,2908
2018-04-22T06:22:48.589Z,2848
2018-04-22T06:23:20.685Z,2904
2018-04-22T06:23:52.717Z,2940
2018-04-22T06:24:24.763Z,3048
2018-04-22T06:24:56.809Z,3076
2018-04-22T06:25:28.907Z,3156
2018-04-22T06:26:01.560Z,3192
2018-04-22T06:26:33.560Z,3200
2018-04-22T06:27:05.599Z,3256
2018-04-22T06:27:37.623Z,3320
2018-04-22T06:28:09.633Z,3328
2018-04-22T06:28:41.771Z,3384
2018-04-22T06:29:13.798Z,3376
2018-04-22T06:29:45.826Z,3320
2018-04-22T06:30:17.853Z,3228
2018-04-22T06:30:49.979Z,2916
2018-04-22T06:31:21.985Z,2880
2018-04-22T06:31:53.984Z,2772
2018-04-22T06:32:26.016Z,2872
2018-04-22T06:32:58.127Z,2948
2018-04-22T06:33:30.134Z,2928
2018-04-22T06:34:02.155Z,2908
2018-04-22T06:34:34.762Z,2896
2018-04-22T06:35:06.777Z,2944
2018-04-22T06:35:38.819Z,2912
2018-04-22T06:36:10.861Z,2868
2018-04-22T06:36:42.978Z,2700
2018-04-22T06:37:14.987Z,2812
2018-04-22T06:37:47.050Z,2784
2018-04-22T06:38:19.055Z,2832
2018-04-22T06:38:51.081Z,2856
2018-04-22T06:39:23.143Z,2968
2018-04-22T06:39:55.157Z,2996
2018-04-22T06:40:27.340Z,2988
2018-04-22T06:40:59.390Z,2980
2018-04-22T06:41:31.407Z,2984
2018-04-22T06:42:03.400Z,2904
2018-04-22T06:42:35.464Z,2712
2018-04-22T06:43:07.482Z,2772
2018-04-22T06:43:39.493Z,2856
2018-04-22T06:44:11.548Z,2860
2018-04-22T06:44:43.604Z,3260
2018-04-22T06:45:16.373Z,3292
2018-04-22T06:45:48.409Z,3316
2018-04-22T06:46:20.425Z,3376
2018-04-22T06:46:52.413Z,3420
2018-04-22T06:47:24.426Z,3436
2018-04-22T06:47:56.430Z,3448
2018-04-22T06:48:29.179Z,3520
2018-04-22T06:49:01.229Z,3540
2018-04-22T06:49:33.225Z,3368
2018-04-22T06:50:05.231Z,3356
2018-04-22T06:50:37.279Z,3320
2018-04-22T06:51:09.284Z,3372
2018-04-22T06:51:41.292Z,3372
2018-04-22T06:52:13.417Z,3284
2018-04-22T06:52:45.522Z,3216
2018-04-22T06:53:17.591Z,3040
2018-04-22T06:53:49.624Z,2952
2018-04-22T06:54:21.786Z,2900
2018-04-22T06:54:53.808Z,2668
2018-04-22T06:55:25.846Z,2804
2018-04-22T06:55:57.880Z,2772
2018-04-22T06:56:29.971Z,2096
2018-04-22T06:57:02.122Z,2048
2018-04-22T06:57:34.133Z,2416
2018-04-22T06:58:06.151Z,2020
2018-04-22T06:58:38.174Z,1940
2018-04-22T06:59:10.205Z,1912
2018-04-22T06:59:42.199Z,1900
2018-04-22T07:00:14.182Z,2248
2018-04-22T07:00:46.165Z,2412
2018-04-22T07:01:18.206Z,2104
2018-04-22T07:01:50.234Z,1972
2018-04-22T07:02:22.254Z,2236
2018-04-22T07:02:54.241Z,1976
2018-04-22T07:03:26.292Z,1996
2018-04-22T07:03:58.314Z,2008
2018-04-22T07:04:30.373Z,2036
2018-04-22T07:05:02.423Z,2060
2018-04-22T07:05:34.564Z,2084
2018-04-22T07:06:06.570Z,2108
2018-04-22T07:06:38.596Z,2136
2018-04-22T07:07:10.605Z,2184
2018-04-22T07:07:42.756Z,2272
2018-04-22T07:08:14.873Z,3012
2018-04-22T07:08:46.895Z,3100
2018-04-22T07:09:18.944Z,3440
2018-04-22T07:09:50.980Z,3400
2018-04-22T07:10:22.962Z,3504
2018-04-22T07:10:55.055Z,3632
2018-04-22T07:11:27.082Z,3708
2018-04-22T07:11:59.162Z,3840
2018-04-22T07:12:31.185Z,3832
2018-04-22T07:13:03.865Z,3792
2018-04-22T07:13:35.970Z,3696
2018-04-22T07:14:08.140Z,3616
2018-04-22T07:14:40.223Z,3564
2018-04-22T07:15:12.245Z,3516
2018-04-22T07:15:44.244Z,3400
2018-04-22T07:16:16.276Z,3360
2018-04-22T07:16:48.301Z,3408
2018-04-22T07:17:20.303Z,3340
2018-04-22T07:17:52.314Z,3252
2018-04-22T07:18:24.334Z,2744
2018-04-22T07:18:56.376Z,3048
2018-04-22T07:19:28.481Z,2640
2018-04-22T07:20:00.512Z,2752
2018-04-22T07:20:32.537Z,2612
2018-04-22T07:21:04.565Z,2600
2018-04-22T07:21:36.606Z,2608
2018-04-22T07:22:08.672Z,3020
2018-04-22T07:22:40.736Z,3292
2018-04-22T07:23:12.751Z,3012
2018-04-22T07:23:44.736Z,3476
2018-04-22T07:24:16.833Z,3420
2018-04-22T07:24:48.855Z,3476
2018-04-22T07:25:20.902Z,3256
2018-04-22T07:25:52.934Z,3348
2018-04-22T07:26:24.977Z,3360
2018-04-22T07:26:56.980Z,3456
2018-04-22T07:27:28.959Z,3416
2018-04-22T07:28:01.088Z,3368
2018-04-22T07:28:33.167Z,2712
2018-04-22T07:29:05.190Z,2668
2018-04-22T07:29:37.191Z,2908
2018-04-22T07:30:09.303Z,2876
2018-04-22T07:30:41.308Z,3456
2018-04-22T07:31:13.314Z,3328
2018-04-22T07:31:45.332Z,3656
2018-04-22T07:32:17.438Z,3728
2018-04-22T07:32:49.479Z,3708
2018-04-22T07:33:21.517Z,3592
2018-04-22T07:33:53.531Z,3536